logo tempoitalia

Diretta Meteo Fairfield-Travis, Stati Uniti (USA)domenica 30 agosto ore 22:55

Mappa
Sereno 16 °C Sereno 24 Ore: T.min 14 T.max 30
Ponente Sud-Ovest Km/h 29.6 Punto di rugiada: 12 °C Umidità: 77% Visibilità: 10 Km
Il sole sorge alle: 06:35 Il sole tramonta alle: 19:40
30 Agosto 2026 22:55 tempo osservato: Sereno Sereno 16 77 1009 vento: Nord SO 29.6
30 Agosto 2026 21:55 tempo osservato: Sereno Sereno 17 72 1009 vento: Nord SO 31.5
30 Agosto 2026 20:55 tempo osservato: Sereno Sereno 18 67 1009 vento: Nord S/SO 31.5
30 Agosto 2026 19:55 tempo osservato: Sereno Sereno 20 56 1008 vento: Nord S/SO 27.8
30 Agosto 2026 18:55 tempo osservato: Sereno Sereno 24 43 1008 vento: Nord SO 25.9
30 Agosto 2026 17:55 tempo osservato: Sereno Sereno 28 32 1008 vento: Nord SO 29.6
30 Agosto 2026 16:55 tempo osservato: Sereno Sereno 30 27 1009 vento: Nord SO 24
30 Agosto 2026 15:55 tempo osservato: Sereno Sereno 30 28 1009 vento: Nord SO 20.3
30 Agosto 2026 14:55 tempo osservato: Sereno Sereno 29 32 1010 vento: Nord SO 16.7
30 Agosto 2026 13:55 tempo osservato: Sereno Sereno 28 34 1011 vento: Nord O/SO 14.8
30 Agosto 2026 12:55 tempo osservato: Sereno Sereno 27 39 1012 vento: Nord SO 11.1
30 Agosto 2026 11:55 tempo osservato: Sereno Sereno 25 41 1012 vento: Nord SO 18.5
30 Agosto 2026 10:55 tempo osservato: Sereno Sereno 23 49 1012 vento: Nord SO 20.3
30 Agosto 2026 09:55 tempo osservato: Sereno Sereno 21 56 1012 vento: Nord SO 22.2
30 Agosto 2026 08:55 tempo osservato: Sereno Sereno 18 67 1012 vento: Nord SO 18.5
30 Agosto 2026 07:55 tempo osservato: Sereno Sereno 16 77 1012 vento: Nord O/SO 18.5
30 Agosto 2026 06:55 tempo osservato: Sereno Sereno 14 87 1012 vento: Nord SO 16.7
30 Agosto 2026 05:55 tempo osservato: Sereno Sereno 14 82 1011 vento: Nord SO 24
30 Agosto 2026 04:55 tempo osservato: Sereno Sereno 15 76 1010 vento: Nord SO 27.8
30 Agosto 2026 03:55 tempo osservato: Sereno Sereno 15 76 1010 vento: Nord SO 33.3
30 Agosto 2026 02:55 tempo osservato: Sereno Sereno 15 76 1010 vento: Nord SO 24
30 Agosto 2026 01:55 tempo osservato: Sereno Sereno 16 77 1010 vento: Nord SO 33.3
30 Agosto 2026 00:55 tempo osservato: Sereno Sereno 16 77 1010 vento: Nord SO 35.2
29 Agosto 2026 23:55 tempo osservato: Sereno Sereno 17 67 1010 vento: Nord SO 29.6